sensor_id;sensor_type;location;lat;lon;timestamp;pressure;altitude;pressure_sealevel;temperature;humidity
10606;BME280;5350;42.698;23.148;2023-03-02T00:01:46;93950.81;;;6.11;100.00
10606;BME280;5350;42.698;23.148;2023-03-02T00:04:16;93948.47;;;6.14;100.00
10606;BME280;5350;42.698;23.148;2023-03-02T00:06:46;93939.31;;;6.12;100.00
10606;BME280;5350;42.698;23.148;2023-03-02T00:09:14;93961.09;;;6.27;100.00
10606;BME280;5350;42.698;23.148;2023-03-02T00:11:40;93947.28;;;6.37;100.00
10606;BME280;5350;42.698;23.148;2023-03-02T00:14:07;93963.50;;;6.39;100.00
10606;BME280;5350;42.698;23.148;2023-03-02T00:16:34;93945.22;;;6.49;100.00
10606;BME280;5350;42.698;23.148;2023-03-02T00:19:01;93952.56;;;6.57;100.00
10606;BME280;5350;42.698;23.148;2023-03-02T00:21:28;93949.41;;;6.45;100.00
10606;BME280;5350;42.698;23.148;2023-03-02T00:23:57;93943.41;;;6.44;100.00
10606;BME280;5350;42.698;23.148;2023-03-02T00:26:24;93937.38;;;6.44;100.00
10606;BME280;5350;42.698;23.148;2023-03-02T00:28:50;93935.00;;;6.37;100.00
10606;BME280;5350;42.698;23.148;2023-03-02T00:31:17;93932.88;;;6.34;100.00
10606;BME280;5350;42.698;23.148;2023-03-02T00:33:44;93931.22;;;6.13;100.00
10606;BME280;5350;42.698;23.148;2023-03-02T00:36:15;93921.31;;;6.15;100.00
10606;BME280;5350;42.698;23.148;2023-03-02T00:38:42;93917.97;;;6.25;100.00
10606;BME280;5350;42.698;23.148;2023-03-02T00:41:11;93922.13;;;6.21;100.00
10606;BME280;5350;42.698;23.148;2023-03-02T00:43:38;93922.13;;;6.21;100.00
10606;BME280;5350;42.698;23.148;2023-03-02T00:46:09;93919.53;;;6.26;100.00
10606;BME280;5350;42.698;23.148;2023-03-02T00:48:35;93919.53;;;6.26;100.00
10606;BME280;5350;42.698;23.148;2023-03-02T00:51:02;93912.72;;;6.20;100.00
10606;BME280;5350;42.698;23.148;2023-03-02T00:53:30;93912.47;;;6.21;100.00
10606;BME280;5350;42.698;23.148;2023-03-02T00:55:57;93909.56;;;6.13;100.00
10606;BME280;5350;42.698;23.148;2023-03-02T00:58:26;93906.97;;;6.18;100.00
10606;BME280;5350;42.698;23.148;2023-03-02T01:00:53;93907.00;;;6.23;100.00
10606;BME280;5350;42.698;23.148;2023-03-02T01:03:19;93902.19;;;6.00;100.00
10606;BME280;5350;42.698;23.148;2023-03-02T01:05:46;93893.59;;;6.04;100.00
10606;BME280;5350;42.698;23.148;2023-03-02T01:08:13;93890.78;;;6.21;100.00
10606;BME280;5350;42.698;23.148;2023-03-02T01:10:40;93886.06;;;6.18;100.00
10606;BME280;5350;42.698;23.148;2023-03-02T01:13:07;93886.66;;;6.30;100.00
10606;BME280;5350;42.698;23.148;2023-03-02T01:15:35;93893.97;;;6.33;100.00
10606;BME280;5350;42.698;23.148;2023-03-02T01:18:02;93891.81;;;6.20;100.00
10606;BME280;5350;42.698;23.148;2023-03-02T01:20:28;93882.13;;;6.15;100.00
10606;BME280;5350;42.698;23.148;2023-03-02T01:22:56;93879.47;;;6.00;100.00
10606;BME280;5350;42.698;23.148;2023-03-02T01:25:22;93873.59;;;5.83;100.00
10606;BME280;5350;42.698;23.148;2023-03-02T01:27:49;93883.25;;;5.83;100.00
10606;BME280;5350;42.698;23.148;2023-03-02T01:30:16;93888.94;;;5.75;100.00
10606;BME280;5350;42.698;23.148;2023-03-02T01:32:44;93882.19;;;5.79;100.00
10606;BME280;5350;42.698;23.148;2023-03-02T01:35:11;93880.09;;;5.76;100.00
10606;BME280;5350;42.698;23.148;2023-03-02T01:37:38;93881.91;;;5.75;100.00
10606;BME280;5350;42.698;23.148;2023-03-02T01:40:06;93876.91;;;5.68;100.00
10606;BME280;5350;42.698;23.148;2023-03-02T01:42:36;93872.13;;;5.55;100.00
10606;BME280;5350;42.698;23.148;2023-03-02T01:45:03;93882.56;;;5.55;100.00
10606;BME280;5350;42.698;23.148;2023-03-02T01:47:33;93873.94;;;5.55;100.00
10606;BME280;5350;42.698;23.148;2023-03-02T01:50:09;93877.09;;;5.57;100.00
10606;BME280;5350;42.698;23.148;2023-03-02T01:52:41;93876.63;;;5.65;100.00
10606;BME280;5350;42.698;23.148;2023-03-02T01:55:10;93866.94;;;5.60;100.00
10606;BME280;5350;42.698;23.148;2023-03-02T01:57:41;93872.72;;;5.62;100.00
10606;BME280;5350;42.698;23.148;2023-03-02T02:00:12;93854.16;;;5.59;100.00
10606;BME280;5350;42.698;23.148;2023-03-02T02:02:40;93867.00;;;5.71;100.00
10606;BME280;5350;42.698;23.148;2023-03-02T02:05:13;93866.97;;;5.65;100.00
10606;BME280;5350;42.698;23.148;2023-03-02T02:07:41;93869.84;;;5.64;100.00
10606;BME280;5350;42.698;23.148;2023-03-02T02:10:09;93874.25;;;5.63;100.00
10606;BME280;5350;42.698;23.148;2023-03-02T02:12:36;93872.50;;;5.69;100.00
10606;BME280;5350;42.698;23.148;2023-03-02T02:15:04;93873.78;;;5.66;100.00
10606;BME280;5350;42.698;23.148;2023-03-02T02:17:31;93866.22;;;5.70;100.00
10606;BME280;5350;42.698;23.148;2023-03-02T02:20:15;93859.13;;;5.60;100.00
10606;BME280;5350;42.698;23.148;2023-03-02T02:22:54;93862.34;;;5.78;100.00
10606;BME280;5350;42.698;23.148;2023-03-02T02:25:34;93870.19;;;5.83;100.00
10606;BME280;5350;42.698;23.148;2023-03-02T02:28:10;93866.78;;;5.77;100.00
10606;BME280;5350;42.698;23.148;2023-03-02T02:30:39;93862.84;;;5.75;100.00
10606;BME280;5350;42.698;23.148;2023-03-02T02:33:11;93859.75;;;5.78;100.00
10606;BME280;5350;42.698;23.148;2023-03-02T02:35:40;93866.75;;;5.72;100.00
10606;BME280;5350;42.698;23.148;2023-03-02T02:38:07;93867.50;;;5.67;100.00
10606;BME280;5350;42.698;23.148;2023-03-02T02:40:44;93863.91;;;5.79;100.00
10606;BME280;5350;42.698;23.148;2023-03-02T02:43:14;93867.59;;;5.83;100.00
10606;BME280;5350;42.698;23.148;2023-03-02T02:45:42;93857.38;;;5.76;100.00
10606;BME280;5350;42.698;23.148;2023-03-02T02:48:10;93846.59;;;5.62;100.00
10606;BME280;5350;42.698;23.148;2023-03-02T02:50:42;93858.59;;;5.58;100.00
10606;BME280;5350;42.698;23.148;2023-03-02T02:53:11;93853.34;;;5.53;100.00
10606;BME280;5350;42.698;23.148;2023-03-02T02:55:40;93860.91;;;5.55;100.00
10606;BME280;5350;42.698;23.148;2023-03-02T02:58:19;93851.13;;;5.35;100.00
10606;BME280;5350;42.698;23.148;2023-03-02T03:00:48;93854.56;;;5.41;100.00
10606;BME280;5350;42.698;23.148;2023-03-02T03:03:24;93854.00;;;5.34;100.00
10606;BME280;5350;42.698;23.148;2023-03-02T03:05:55;93847.25;;;5.38;100.00
10606;BME280;5350;42.698;23.148;2023-03-02T03:08:54;93844.34;;;5.34;100.00
10606;BME280;5350;42.698;23.148;2023-03-02T03:11:24;93852.63;;;5.26;100.00
10606;BME280;5350;42.698;23.148;2023-03-02T03:13:57;93854.69;;;5.24;100.00
10606;BME280;5350;42.698;23.148;2023-03-02T03:16:27;93844.78;;;5.21;100.00
10606;BME280;5350;42.698;23.148;2023-03-02T03:18:55;93843.19;;;5.20;100.00
10606;BME280;5350;42.698;23.148;2023-03-02T03:21:24;93846.63;;;5.26;100.00
10606;BME280;5350;42.698;23.148;2023-03-02T03:23:50;93842.13;;;5.16;100.00
10606;BME280;5350;42.698;23.148;2023-03-02T03:26:18;93843.78;;;5.27;100.00
10606;BME280;5350;42.698;23.148;2023-03-02T03:28:44;93845.91;;;5.35;100.00
10606;BME280;5350;42.698;23.148;2023-03-02T03:31:12;93847.72;;;5.30;100.00
10606;BME280;5350;42.698;23.148;2023-03-02T03:33:39;93842.72;;;5.23;100.00
10606;BME280;5350;42.698;23.148;2023-03-02T03:36:06;93849.69;;;5.18;100.00
10606;BME280;5350;42.698;23.148;2023-03-02T03:38:33;93849.13;;;5.11;100.00
10606;BME280;5350;42.698;23.148;2023-03-02T03:41:00;93845.66;;;5.00;100.00
10606;BME280;5350;42.698;23.148;2023-03-02T03:43:27;93851.91;;;4.99;100.00
10606;BME280;5350;42.698;23.148;2023-03-02T03:45:54;93851.22;;;5.09;100.00
10606;BME280;5350;42.698;23.148;2023-03-02T03:48:22;93851.97;;;5.09;100.00
10606;BME280;5350;42.698;23.148;2023-03-02T03:50:48;93853.09;;;5.18;100.00
10606;BME280;5350;42.698;23.148;2023-03-02T03:53:15;93843.75;;;5.22;100.00
10606;BME280;5350;42.698;23.148;2023-03-02T03:55:42;93854.81;;;5.39;100.00
10606;BME280;5350;42.698;23.148;2023-03-02T03:58:09;93849.91;;;5.48;100.00
10606;BME280;5350;42.698;23.148;2023-03-02T04:00:36;93854.88;;;5.44;100.00
10606;BME280;5350;42.698;23.148;2023-03-02T04:03:02;93860.63;;;5.51;100.00
10606;BME280;5350;42.698;23.148;2023-03-02T04:05:31;93859.88;;;5.56;100.00
10606;BME280;5350;42.698;23.148;2023-03-02T04:07:57;93859.63;;;5.57;100.00
10606;BME280;5350;42.698;23.148;2023-03-02T04:10:26;93860.16;;;5.59;100.00
10606;BME280;5350;42.698;23.148;2023-03-02T04:12:53;93853.91;;;5.60;100.00
10606;BME280;5350;42.698;23.148;2023-03-02T04:15:20;93850.78;;;5.63;100.00
10606;BME280;5350;42.698;23.148;2023-03-02T04:17:47;93841.81;;;5.49;100.00
10606;BME280;5350;42.698;23.148;2023-03-02T04:20:14;93840.75;;;5.45;100.00
10606;BME280;5350;42.698;23.148;2023-03-02T04:22:43;93840.22;;;5.43;100.00
10606;BME280;5350;42.698;23.148;2023-03-02T04:25:11;93850.19;;;5.51;100.00
10606;BME280;5350;42.698;23.148;2023-03-02T04:27:38;93850.75;;;5.58;100.00
10606;BME280;5350;42.698;23.148;2023-03-02T04:30:07;93856.47;;;5.55;100.00
10606;BME280;5350;42.698;23.148;2023-03-02T04:32:34;93855.75;;;5.65;100.00
10606;BME280;5350;42.698;23.148;2023-03-02T04:35:00;93866.44;;;5.63;100.00
10606;BME280;5350;42.698;23.148;2023-03-02T04:37:27;93860.72;;;5.72;100.00
10606;BME280;5350;42.698;23.148;2023-03-02T04:39:55;93861.81;;;5.76;100.00
10606;BME280;5350;42.698;23.148;2023-03-02T04:42:22;93866.53;;;5.74;100.00
10606;BME280;5350;42.698;23.148;2023-03-02T04:44:49;93866.53;;;5.79;100.00
10606;BME280;5350;42.698;23.148;2023-03-02T04:47:16;93867.59;;;5.78;100.00
10606;BME280;5350;42.698;23.148;2023-03-02T04:49:43;93867.53;;;5.73;100.00
10606;BME280;5350;42.698;23.148;2023-03-02T04:52:09;93866.25;;;5.75;100.00
10606;BME280;5350;42.698;23.148;2023-03-02T04:54:36;93863.34;;;5.72;100.00
10606;BME280;5350;42.698;23.148;2023-03-02T04:57:04;93863.28;;;5.56;100.00
10606;BME280;5350;42.698;23.148;2023-03-02T04:59:33;93871.66;;;5.63;100.00
10606;BME280;5350;42.698;23.148;2023-03-02T05:02:00;93873.19;;;5.59;100.00
10606;BME280;5350;42.698;23.148;2023-03-02T05:04:28;93862.44;;;5.51;100.00
10606;BME280;5350;42.698;23.148;2023-03-02T05:06:55;93890.94;;;5.57;100.00
10606;BME280;5350;42.698;23.148;2023-03-02T05:09:22;93871.59;;;5.53;100.00
10606;BME280;5350;42.698;23.148;2023-03-02T05:11:52;93864.25;;;5.45;100.00
10606;BME280;5350;42.698;23.148;2023-03-02T05:14:21;93862.56;;;5.29;100.00
10606;BME280;5350;42.698;23.148;2023-03-02T05:16:48;93869.06;;;5.27;100.00
10606;BME280;5350;42.698;23.148;2023-03-02T05:19:15;93866.50;;;5.32;100.00
10606;BME280;5350;42.698;23.148;2023-03-02T05:21:42;93876.78;;;5.12;100.00
10606;BME280;5350;42.698;23.148;2023-03-02T05:24:09;93870.88;;;5.21;100.00
10606;BME280;5350;42.698;23.148;2023-03-02T05:26:36;93874.75;;;5.19;100.00
10606;BME280;5350;42.698;23.148;2023-03-02T05:29:03;93875.00;;;5.17;100.00
10606;BME280;5350;42.698;23.148;2023-03-02T05:31:34;93880.75;;;5.19;100.00
10606;BME280;5350;42.698;23.148;2023-03-02T05:34:02;93882.00;;;5.12;100.00
10606;BME280;5350;42.698;23.148;2023-03-02T05:36:29;93876.56;;;5.18;100.00
10606;BME280;5350;42.698;23.148;2023-03-02T05:38:56;93871.75;;;5.05;100.00
10606;BME280;5350;42.698;23.148;2023-03-02T05:41:22;93872.28;;;5.02;100.00
10606;BME280;5350;42.698;23.148;2023-03-02T05:43:50;93866.38;;;4.85;100.00
10606;BME280;5350;42.698;23.148;2023-03-02T05:46:17;93885.53;;;5.01;100.00
10606;BME280;5350;42.698;23.148;2023-03-02T05:48:45;93884.84;;;5.10;100.00
10606;BME280;5350;42.698;23.148;2023-03-02T05:51:11;93893.00;;;5.19;100.00
10606;BME280;5350;42.698;23.148;2023-03-02T05:53:38;93889.78;;;5.07;100.00
10606;BME280;5350;42.698;23.148;2023-03-02T05:56:06;93893.81;;;5.19;100.00
10606;BME280;5350;42.698;23.148;2023-03-02T05:58:33;93904.50;;;5.23;100.00
10606;BME280;5350;42.698;23.148;2023-03-02T06:01:00;93898.00;;;5.25;100.00
10606;BME280;5350;42.698;23.148;2023-03-02T06:03:26;93890.66;;;5.17;100.00
10606;BME280;5350;42.698;23.148;2023-03-02T06:05:54;93893.69;;;5.09;100.00
10606;BME280;5350;42.698;23.148;2023-03-02T06:08:21;93887.06;;;5.23;100.00
10606;BME280;5350;42.698;23.148;2023-03-02T06:10:48;93893.34;;;5.32;100.00
10606;BME280;5350;42.698;23.148;2023-03-02T06:13:15;93898.66;;;5.42;100.00
10606;BME280;5350;42.698;23.148;2023-03-02T06:15:41;93899.22;;;5.49;100.00
10606;BME280;5350;42.698;23.148;2023-03-02T06:18:08;93898.09;;;5.40;100.00
10606;BME280;5350;42.698;23.148;2023-03-02T06:20:37;93903.31;;;5.40;100.00
10606;BME280;5350;42.698;23.148;2023-03-02T06:23:05;93905.19;;;5.45;100.00
10606;BME280;5350;42.698;23.148;2023-03-02T06:25:32;93905.25;;;5.50;100.00
10606;BME280;5350;42.698;23.148;2023-03-02T06:28:00;93903.59;;;5.39;100.00
10606;BME280;5350;42.698;23.148;2023-03-02T06:30:27;93889.69;;;5.28;100.00
10606;BME280;5350;42.698;23.148;2023-03-02T06:32:53;93911.38;;;5.34;100.00
10606;BME280;5350;42.698;23.148;2023-03-02T06:35:20;93902.72;;;5.28;100.00
10606;BME280;5350;42.698;23.148;2023-03-02T06:37:48;93902.97;;;5.27;100.00
10606;BME280;5350;42.698;23.148;2023-03-02T06:40:16;93907.94;;;5.28;100.00
10606;BME280;5350;42.698;23.148;2023-03-02T06:42:43;93900.22;;;5.43;100.00
10606;BME280;5350;42.698;23.148;2023-03-02T06:45:10;93904.13;;;5.41;100.00
10606;BME280;5350;42.698;23.148;2023-03-02T06:47:37;93900.75;;;5.45;100.00
10606;BME280;5350;42.698;23.148;2023-03-02T06:50:05;93904.66;;;5.43;100.00
10606;BME280;5350;42.698;23.148;2023-03-02T06:52:32;93905.44;;;5.43;100.00
10606;BME280;5350;42.698;23.148;2023-03-02T06:54:59;93905.72;;;5.47;100.00
10606;BME280;5350;42.698;23.148;2023-03-02T06:57:27;93908.91;;;5.54;100.00
10606;BME280;5350;42.698;23.148;2023-03-02T06:59:58;93904.44;;;5.49;100.00
10606;BME280;5350;42.698;23.148;2023-03-02T07:02:25;93906.53;;;5.47;100.00
10606;BME280;5350;42.698;23.148;2023-03-02T07:04:52;93904.72;;;5.53;100.00
10606;BME280;5350;42.698;23.148;2023-03-02T07:07:18;93911.00;;;5.57;100.00
10606;BME280;5350;42.698;23.148;2023-03-02T07:09:45;93906.88;;;5.61;100.00
10606;BME280;5350;42.698;23.148;2023-03-02T07:12:12;93916.53;;;5.60;100.00
10606;BME280;5350;42.698;23.148;2023-03-02T07:14:40;93907.06;;;5.49;100.00
10606;BME280;5350;42.698;23.148;2023-03-02T07:17:06;93910.47;;;5.55;100.00
10606;BME280;5350;42.698;23.148;2023-03-02T07:19:33;93914.19;;;5.59;100.00
10606;BME280;5350;42.698;23.148;2023-03-02T07:22:02;93913.44;;;5.68;100.00
10606;BME280;5350;42.698;23.148;2023-03-02T07:24:29;93908.75;;;5.71;100.00
10606;BME280;5350;42.698;23.148;2023-03-02T07:26:56;93913.19;;;5.70;100.00
10606;BME280;5350;42.698;23.148;2023-03-02T07:29:23;93911.00;;;5.52;100.00
10606;BME280;5350;42.698;23.148;2023-03-02T07:31:51;93907.84;;;5.50;100.00
10606;BME280;5350;42.698;23.148;2023-03-02T07:34:21;93916.56;;;5.65;100.00
10606;BME280;5350;42.698;23.148;2023-03-02T07:36:48;93908.66;;;5.55;100.00
10606;BME280;5350;42.698;23.148;2023-03-02T07:39:15;93911.00;;;5.57;100.00
10606;BME280;5350;42.698;23.148;2023-03-02T07:41:42;93913.63;;;5.57;100.00
10606;BME280;5350;42.698;23.148;2023-03-02T07:44:09;93918.06;;;5.56;100.00
10606;BME280;5350;42.698;23.148;2023-03-02T07:46:36;93916.03;;;5.63;100.00
10606;BME280;5350;42.698;23.148;2023-03-02T07:49:04;93912.38;;;5.64;100.00
10606;BME280;5350;42.698;23.148;2023-03-02T07:51:31;93916.00;;;5.58;100.00
10606;BME280;5350;42.698;23.148;2023-03-02T07:53:57;93913.66;;;5.62;100.00
10606;BME280;5350;42.698;23.148;2023-03-02T07:56:27;93916.59;;;5.71;100.00
10606;BME280;5350;42.698;23.148;2023-03-02T07:58:53;93908.50;;;5.72;100.00
10606;BME280;5350;42.698;23.148;2023-03-02T08:01:20;93915.28;;;5.68;100.00
10606;BME280;5350;42.698;23.148;2023-03-02T08:03:47;93906.19;;;5.76;100.00
10606;BME280;5350;42.698;23.148;2023-03-02T08:06:15;93906.84;;;5.93;100.00
10606;BME280;5350;42.698;23.148;2023-03-02T08:08:42;93904.78;;;6.00;100.00
10606;BME280;5350;42.698;23.148;2023-03-02T08:11:10;93888.00;;;5.86;100.00
10606;BME280;5350;42.698;23.148;2023-03-02T08:13:37;93900.13;;;6.07;100.00
10606;BME280;5350;42.698;23.148;2023-03-02T08:16:06;93903.28;;;6.09;100.00
10606;BME280;5350;42.698;23.148;2023-03-02T08:18:33;93901.72;;;6.13;100.00
10606;BME280;5350;42.698;23.148;2023-03-02T08:21:01;93901.19;;;6.16;100.00
10606;BME280;5350;42.698;23.148;2023-03-02T08:23:30;93898.59;;;6.16;100.00
10606;BME280;5350;42.698;23.148;2023-03-02T08:25:56;93901.75;;;6.23;100.00
10606;BME280;5350;42.698;23.148;2023-03-02T08:28:23;93886.63;;;6.25;100.00
10606;BME280;5350;42.698;23.148;2023-03-02T08:30:57;93892.66;;;6.25;100.00
10606;BME280;5350;42.698;23.148;2023-03-02T08:33:25;93894.97;;;6.22;100.00
10606;BME280;5350;42.698;23.148;2023-03-02T08:35:55;93895.72;;;6.12;100.00
10606;BME280;5350;42.698;23.148;2023-03-02T08:38:22;93893.41;;;6.21;100.00
10606;BME280;5350;42.698;23.148;2023-03-02T08:40:51;93881.06;;;6.11;100.00
10606;BME280;5350;42.698;23.148;2023-03-02T08:43:18;93898.13;;;6.29;100.00
10606;BME280;5350;42.698;23.148;2023-03-02T08:45:49;93898.66;;;6.31;100.00
10606;BME280;5350;42.698;23.148;2023-03-02T08:48:17;93882.94;;;6.21;100.00
10606;BME280;5350;42.698;23.148;2023-03-02T08:50:43;93884.56;;;6.37;100.00
10606;BME280;5350;42.698;23.148;2023-03-02T08:53:10;93887.66;;;6.24;100.00
10606;BME280;5350;42.698;23.148;2023-03-02T08:55:37;93887.69;;;6.29;100.00
10606;BME280;5350;42.698;23.148;2023-03-02T08:58:05;93883.00;;;6.31;100.00
10606;BME280;5350;42.698;23.148;2023-03-02T09:00:32;93886.38;;;6.26;100.00
10606;BME280;5350;42.698;23.148;2023-03-02T09:02:58;93891.63;;;6.31;100.00
10606;BME280;5350;42.698;23.148;2023-03-02T09:05:26;93898.41;;;6.32;100.00
10606;BME280;5350;42.698;23.148;2023-03-02T09:07:53;93894.75;;;6.38;100.00
10606;BME280;5350;42.698;23.148;2023-03-02T09:10:20;93890.13;;;6.51;100.00
10606;BME280;5350;42.698;23.148;2023-03-02T09:12:46;93881.47;;;6.55;100.00
10606;BME280;5350;42.698;23.148;2023-03-02T09:15:14;93887.78;;;6.59;100.00
10606;BME280;5350;42.698;23.148;2023-03-02T09:17:41;93871.06;;;6.60;100.00
10606;BME280;5350;42.698;23.148;2023-03-02T09:20:09;93879.63;;;6.40;100.00
10606;BME280;5350;42.698;23.148;2023-03-02T09:22:36;93881.66;;;6.23;100.00
10606;BME280;5350;42.698;23.148;2023-03-02T09:25:03;93888.75;;;6.33;100.00
10606;BME280;5350;42.698;23.148;2023-03-02T09:27:30;93885.09;;;6.39;100.00
10606;BME280;5350;42.698;23.148;2023-03-02T09:29:57;93886.97;;;6.49;100.00
10606;BME280;5350;42.698;23.148;2023-03-02T09:32:25;93889.84;;;6.57;100.00
10606;BME280;5350;42.698;23.148;2023-03-02T09:34:52;93885.44;;;6.68;100.00
10606;BME280;5350;42.698;23.148;2023-03-02T09:37:18;93886.50;;;6.77;100.00
10606;BME280;5350;42.698;23.148;2023-03-02T09:39:45;93886.28;;;6.83;100.00
10606;BME280;5350;42.698;23.148;2023-03-02T09:42:25;93891.50;;;6.83;100.00
10606;BME280;5350;42.698;23.148;2023-03-02T09:48:04;93887.84;;;6.79;100.00
10606;BME280;5350;42.698;23.148;2023-03-02T09:50:39;93889.44;;;6.90;100.00
10606;BME280;5350;42.698;23.148;2023-03-02T09:53:30;93887.31;;;6.77;100.00
10606;BME280;5350;42.698;23.148;2023-03-02T09:56:00;93889.41;;;6.85;100.00
10606;BME280;5350;42.698;23.148;2023-03-02T09:58:30;93888.91;;;6.98;100.00
10606;BME280;5350;42.698;23.148;2023-03-02T10:00:59;93884.44;;;6.89;100.00
10606;BME280;5350;42.698;23.148;2023-03-02T10:03:34;93892.56;;;7.02;100.00
10606;BME280;5350;42.698;23.148;2023-03-02T10:06:03;93888.63;;;6.90;100.00
10606;BME280;5350;42.698;23.148;2023-03-02T10:08:33;93895.94;;;6.78;100.00
10606;BME280;5350;42.698;23.148;2023-03-02T10:11:05;93881.53;;;6.65;100.00
10606;BME280;5350;42.698;23.148;2023-03-02T10:13:39;93885.44;;;6.63;100.00
10606;BME280;5350;42.698;23.148;2023-03-02T10:16:17;93883.06;;;6.56;100.00
10606;BME280;5350;42.698;23.148;2023-03-02T10:18:52;93885.63;;;6.41;100.00
10606;BME280;5350;42.698;23.148;2023-03-02T10:21:26;93882.28;;;6.51;100.00
10606;BME280;5350;42.698;23.148;2023-03-02T10:23:59;93880.19;;;6.58;100.00
10606;BME280;5350;42.698;23.148;2023-03-02T10:26:37;93882.03;;;6.62;100.00
10606;BME280;5350;42.698;23.148;2023-03-02T10:31:58;93872.09;;;6.64;100.00
10606;BME280;5350;42.698;23.148;2023-03-02T10:34:30;93876.28;;;6.70;100.00
10606;BME280;5350;42.698;23.148;2023-03-02T10:36:57;93870.06;;;6.81;100.00
10606;BME280;5350;42.698;23.148;2023-03-02T10:39:24;93875.28;;;6.86;100.00
10606;BME280;5350;42.698;23.148;2023-03-02T10:41:52;93872.94;;;6.90;100.00
10606;BME280;5350;42.698;23.148;2023-03-02T10:44:24;93865.84;;;6.80;100.00
10606;BME280;5350;42.698;23.148;2023-03-02T10:46:53;93865.88;;;6.95;100.00
10606;BME280;5350;42.698;23.148;2023-03-02T10:49:27;93864.81;;;6.86;100.00
10606;BME280;5350;42.698;23.148;2023-03-02T10:51:58;93857.22;;;6.70;100.00
10606;BME280;5350;42.698;23.148;2023-03-02T10:54:26;93861.41;;;6.61;100.00
10606;BME280;5350;42.698;23.148;2023-03-02T10:56:55;93855.91;;;6.67;100.00
10606;BME280;5350;42.698;23.148;2023-03-02T10:59:43;93861.66;;;6.64;100.00
10606;BME280;5350;42.698;23.148;2023-03-02T11:02:21;93853.81;;;6.59;100.00
10606;BME280;5350;42.698;23.148;2023-03-02T11:04:54;93849.09;;;6.66;100.00
10606;BME280;5350;42.698;23.148;2023-03-02T11:07:22;93842.81;;;6.57;100.00
10606;BME280;5350;42.698;23.148;2023-03-02T11:09:57;93842.84;;;6.67;100.00
10606;BME280;5350;42.698;23.148;2023-03-02T11:12:23;93833.44;;;6.61;100.00
10606;BME280;5350;42.698;23.148;2023-03-02T11:15:00;93842.03;;;6.62;100.00
10606;BME280;5350;42.698;23.148;2023-03-02T11:17:30;93838.69;;;6.71;100.00
10606;BME280;5350;42.698;23.148;2023-03-02T11:20:02;93843.63;;;6.83;100.00
10606;BME280;5350;42.698;23.148;2023-03-02T11:22:35;93835.50;;;6.64;100.00
10606;BME280;5350;42.698;23.148;2023-03-02T11:25:06;93834.22;;;6.72;100.00
10606;BME280;5350;42.698;23.148;2023-03-02T11:27:38;93837.63;;;6.67;100.00
10606;BME280;5350;42.698;23.148;2023-03-02T11:30:12;93838.38;;;6.68;100.00
10606;BME280;5350;42.698;23.148;2023-03-02T11:32:43;93841.81;;;6.73;100.00
10606;BME280;5350;42.698;23.148;2023-03-02T11:35:26;93835.81;;;6.78;100.00
10606;BME280;5350;42.698;23.148;2023-03-02T11:37:56;93830.59;;;6.78;100.00
10606;BME280;5350;42.698;23.148;2023-03-02T11:40:29;93827.19;;;6.77;100.00
10606;BME280;5350;42.698;23.148;2023-03-02T11:42:58;93832.13;;;6.79;100.00
10606;BME280;5350;42.698;23.148;2023-03-02T11:45:28;93831.88;;;6.80;100.00
10606;BME280;5350;42.698;23.148;2023-03-02T11:48:01;93829.53;;;6.84;100.00
10606;BME280;5350;42.698;23.148;2023-03-02T11:50:34;93824.81;;;6.76;100.00
10606;BME280;5350;42.698;23.148;2023-03-02T11:53:05;93822.47;;;6.69;100.00
10606;BME280;5350;42.698;23.148;2023-03-02T11:55:38;93825.06;;;6.64;100.00
10606;BME280;5350;42.698;23.148;2023-03-02T11:58:10;93829.78;;;6.72;100.00
10606;BME280;5350;42.698;23.148;2023-03-02T12:00:42;93833.72;;;6.80;100.00
10606;BME280;5350;42.698;23.148;2023-03-02T12:03:19;93825.88;;;6.85;100.00
10606;BME280;5350;42.698;23.148;2023-03-02T12:06:00;93831.38;;;6.98;100.00
10606;BME280;5350;42.698;23.148;2023-03-02T12:08:33;93820.38;;;7.01;100.00
10606;BME280;5350;42.698;23.148;2023-03-02T12:11:02;93818.56;;;7.02;100.00
10606;BME280;5350;42.698;23.148;2023-03-02T12:13:31;93820.41;;;6.96;100.00
10606;BME280;5350;42.698;23.148;2023-03-02T12:15:58;93827.16;;;7.07;100.00
10606;BME280;5350;42.698;23.148;2023-03-02T12:18:42;93823.00;;;7.16;100.00
10606;BME280;5350;42.698;23.148;2023-03-02T12:21:13;93816.72;;;7.07;100.00
10606;BME280;5350;42.698;23.148;2023-03-02T12:23:53;93809.66;;;6.88;100.00
10606;BME280;5350;42.698;23.148;2023-03-02T12:26:27;93814.63;;;6.99;100.00
10606;BME280;5350;42.698;23.148;2023-03-02T12:28:57;93815.69;;;6.93;100.00
10606;BME280;5350;42.698;23.148;2023-03-02T12:31:25;93808.34;;;6.75;100.00
10606;BME280;5350;42.698;23.148;2023-03-02T12:33:52;93824.03;;;6.85;100.00
10606;BME280;5350;42.698;23.148;2023-03-02T12:36:25;93821.94;;;6.87;100.00
10606;BME280;5350;42.698;23.148;2023-03-02T12:39:03;93826.91;;;6.94;100.00
10606;BME280;5350;42.698;23.148;2023-03-02T12:41:46;93827.72;;;6.94;100.00
10606;BME280;5350;42.698;23.148;2023-03-02T12:44:34;93840.78;;;6.94;100.00
10606;BME280;5350;42.698;23.148;2023-03-02T12:47:12;93811.47;;;6.82;100.00
10606;BME280;5350;42.698;23.148;2023-03-02T12:49:48;93804.44;;;6.78;100.00
10606;BME280;5350;42.698;23.148;2023-03-02T12:52:26;93811.22;;;6.84;100.00
10606;BME280;5350;42.698;23.148;2023-03-02T12:55:02;93804.16;;;6.84;100.00
10606;BME280;5350;42.698;23.148;2023-03-02T12:57:30;93793.16;;;6.72;100.00
10606;BME280;5350;42.698;23.148;2023-03-02T12:59:58;93796.56;;;6.73;100.00
10606;BME280;5350;42.698;23.148;2023-03-02T13:02:26;93794.22;;;6.66;100.00
10606;BME280;5350;42.698;23.148;2023-03-02T13:04:54;93789.00;;;6.66;100.00
10606;BME280;5350;42.698;23.148;2023-03-02T13:07:25;93781.16;;;6.56;100.00
10606;BME280;5350;42.698;23.148;2023-03-02T13:09:54;93788.19;;;6.66;100.00
10606;BME280;5350;42.698;23.148;2023-03-02T13:12:24;93775.94;;;6.71;100.00
10606;BME280;5350;42.698;23.148;2023-03-02T13:14:54;93779.84;;;6.64;100.00
10606;BME280;5350;42.698;23.148;2023-03-02T13:17:24;93780.13;;;6.67;100.00